sensor_id;sensor_type;location;lat;lon;timestamp;pressure;altitude;pressure_sealevel;temperature;humidity
19789;BME280;10054;59.332;18.244;2022-12-18T00:00:17;101584.16;;;-2.34;100.00
19789;BME280;10054;59.332;18.244;2022-12-18T00:02:46;101587.19;;;-2.32;100.00
19789;BME280;10054;59.332;18.244;2022-12-18T00:05:15;101581.16;;;-2.30;100.00
19789;BME280;10054;59.332;18.244;2022-12-18T00:07:43;101584.20;;;-2.28;100.00
19789;BME280;10054;59.332;18.244;2022-12-18T00:10:12;101587.66;;;-2.24;100.00
19789;BME280;10054;59.332;18.244;2022-12-18T00:12:41;101581.63;;;-2.19;100.00
19789;BME280;10054;59.332;18.244;2022-12-18T00:15:10;101579.52;;;-2.09;100.00
19789;BME280;10054;59.332;18.244;2022-12-18T00:17:38;101569.61;;;-2.09;100.00
19789;BME280;10054;59.332;18.244;2022-12-18T00:20:08;101582.53;;;-2.11;100.00
19789;BME280;10054;59.332;18.244;2022-12-18T00:22:37;101575.63;;;-2.13;100.00
19789;BME280;10054;59.332;18.244;2022-12-18T00:25:07;101578.20;;;-2.15;100.00
19789;BME280;10054;59.332;18.244;2022-12-18T00:27:36;101581.20;;;-2.17;100.00
19789;BME280;10054;59.332;18.244;2022-12-18T00:30:05;101587.23;;;-2.16;100.00
19789;BME280;10054;59.332;18.244;2022-12-18T00:32:34;101594.56;;;-2.16;100.00
19789;BME280;10054;59.332;18.244;2022-12-18T00:35:04;101592.84;;;-2.17;100.00
19789;BME280;10054;59.332;18.244;2022-12-18T00:37:34;101591.12;;;-2.16;100.00
19789;BME280;10054;59.332;18.244;2022-12-18T00:40:03;101588.96;;;-2.17;100.00
19789;BME280;10054;59.332;18.244;2022-12-18T00:42:32;101585.95;;;-2.16;100.00
19789;BME280;10054;59.332;18.244;2022-12-18T00:45:19;101586.38;;;-2.15;100.00
19789;BME280;10054;59.332;18.244;2022-12-18T00:47:48;101583.38;;;-2.15;100.00
19789;BME280;10054;59.332;18.244;2022-12-18T00:50:16;101576.91;;;-2.15;100.00
19789;BME280;10054;59.332;18.244;2022-12-18T00:52:45;101579.92;;;-2.14;100.00
19789;BME280;10054;59.332;18.244;2022-12-18T00:55:15;101570.02;;;-2.13;100.00
19789;BME280;10054;59.332;18.244;2022-12-18T00:57:44;101568.30;;;-2.12;100.00
19789;BME280;10054;59.332;18.244;2022-12-18T01:00:14;101563.13;;;-2.12;100.00
19789;BME280;10054;59.332;18.244;2022-12-18T01:02:43;101561.42;;;-2.10;100.00
19789;BME280;10054;59.332;18.244;2022-12-18T01:05:13;101557.55;;;-2.07;100.00
19789;BME280;10054;59.332;18.244;2022-12-18T01:07:42;101561.02;;;-2.02;100.00
19789;BME280;10054;59.332;18.244;2022-12-18T01:10:12;101570.53;;;-1.95;100.00
19789;BME280;10054;59.332;18.244;2022-12-18T01:12:41;101564.95;;;-1.91;100.00
19789;BME280;10054;59.332;18.244;2022-12-18T01:15:12;101576.58;;;-1.91;100.00
19789;BME280;10054;59.332;18.244;2022-12-18T01:17:42;101571.83;;;-1.93;100.00
19789;BME280;10054;59.332;18.244;2022-12-18T01:20:12;101568.80;;;-1.96;100.00
19789;BME280;10054;59.332;18.244;2022-12-18T01:22:41;101572.25;;;-1.95;100.00
19789;BME280;10054;59.332;18.244;2022-12-18T01:25:10;101566.64;;;-2.00;100.00
19789;BME280;10054;59.332;18.244;2022-12-18T01:27:39;101574.39;;;-2.00;100.00
19789;BME280;10054;59.332;18.244;2022-12-18T01:30:08;101575.69;;;-2.00;100.00
19789;BME280;10054;59.332;18.244;2022-12-18T01:32:37;101583.44;;;-2.01;100.00
19789;BME280;10054;59.332;18.244;2022-12-18T01:35:07;101605.41;;;-2.01;100.00
19789;BME280;10054;59.332;18.244;2022-12-18T01:37:36;101596.36;;;-2.01;100.00
19789;BME280;10054;59.332;18.244;2022-12-18T01:40:05;101596.80;;;-2.00;100.00
19789;BME280;10054;59.332;18.244;2022-12-18T01:42:34;101590.33;;;-2.00;100.00
19789;BME280;10054;59.332;18.244;2022-12-18T01:47:45;101586.46;;;-1.99;100.00
19789;BME280;10054;59.332;18.244;2022-12-18T01:50:17;101579.14;;;-1.97;100.00
19789;BME280;10054;59.332;18.244;2022-12-18T01:53:11;101576.13;;;-1.95;100.00
19789;BME280;10054;59.332;18.244;2022-12-18T01:55:28;101571.39;;;-1.96;100.00
19789;BME280;10054;59.332;18.244;2022-12-18T01:57:58;101568.81;;;-1.94;100.00
19789;BME280;10054;59.332;18.244;2022-12-18T02:00:28;101560.20;;;-1.93;100.00
19789;BME280;10054;59.332;18.244;2022-12-18T02:02:57;101556.76;;;-1.91;100.00
19789;BME280;10054;59.332;18.244;2022-12-18T02:05:47;101557.63;;;-1.87;100.00
19789;BME280;10054;59.332;18.244;2022-12-18T02:08:34;101558.94;;;-1.84;100.00
19789;BME280;10054;59.332;18.244;2022-12-18T02:14:04;101546.89;;;-1.76;100.00
19789;BME280;10054;59.332;18.244;2022-12-18T02:19:53;101554.64;;;-1.81;100.00
19789;BME280;10054;59.332;18.244;2022-12-18T02:25:17;101552.90;;;-1.85;100.00
19789;BME280;10054;59.332;18.244;2022-12-18T02:27:45;101552.89;;;-1.86;100.00
19789;BME280;10054;59.332;18.244;2022-12-18T02:30:16;101558.92;;;-1.87;100.00
19789;BME280;10054;59.332;18.244;2022-12-18T02:32:49;101560.22;;;-1.87;100.00
19789;BME280;10054;59.332;18.244;2022-12-18T02:35:25;101549.88;;;-1.87;100.00
19789;BME280;10054;59.332;18.244;2022-12-18T02:37:54;101549.44;;;-1.88;100.00
19789;BME280;10054;59.332;18.244;2022-12-18T02:40:26;101558.05;;;-1.89;100.00
19789;BME280;10054;59.332;18.244;2022-12-18T02:42:55;101555.03;;;-1.90;100.00
19789;BME280;10054;59.332;18.244;2022-12-18T02:45:27;101557.62;;;-1.89;100.00
19789;BME280;10054;59.332;18.244;2022-12-18T02:47:56;101550.73;;;-1.90;100.00
19789;BME280;10054;59.332;18.244;2022-12-18T02:50:34;101552.45;;;-1.89;100.00
19789;BME280;10054;59.332;18.244;2022-12-18T02:53:24;101545.56;;;-1.88;100.00
19789;BME280;10054;59.332;18.244;2022-12-18T02:56:04;101546.42;;;-1.88;100.00
19789;BME280;10054;59.332;18.244;2022-12-18T02:58:47;101535.66;;;-1.86;100.00
19789;BME280;10054;59.332;18.244;2022-12-18T03:01:33;101533.50;;;-1.85;100.00
19789;BME280;10054;59.332;18.244;2022-12-18T03:04:05;101532.64;;;-1.84;100.00
19789;BME280;10054;59.332;18.244;2022-12-18T03:06:40;101529.63;;;-1.83;100.00
19789;BME280;10054;59.332;18.244;2022-12-18T03:09:17;101531.36;;;-1.82;100.00
19789;BME280;10054;59.332;18.244;2022-12-18T03:11:48;101521.02;;;-1.81;100.00
19789;BME280;10054;59.332;18.244;2022-12-18T03:14:37;101530.08;;;-1.76;100.00
19789;BME280;10054;59.332;18.244;2022-12-18T03:17:10;101533.98;;;-1.64;100.00
19789;BME280;10054;59.332;18.244;2022-12-18T03:19:40;101541.31;;;-1.65;100.00
19789;BME280;10054;59.332;18.244;2022-12-18T03:22:11;101534.41;;;-1.69;100.00
19789;BME280;10054;59.332;18.244;2022-12-18T03:24:46;101526.20;;;-1.73;100.00
19789;BME280;10054;59.332;18.244;2022-12-18T03:27:19;101523.61;;;-1.76;100.00
19789;BME280;10054;59.332;18.244;2022-12-18T03:29:52;101534.81;;;-1.79;100.00
19789;BME280;10054;59.332;18.244;2022-12-18T03:32:28;101526.62;;;-1.80;100.00
19789;BME280;10054;59.332;18.244;2022-12-18T03:35:00;101527.05;;;-1.83;100.00
19789;BME280;10054;59.332;18.244;2022-12-18T03:37:32;101519.28;;;-1.83;100.00
19789;BME280;10054;59.332;18.244;2022-12-18T03:40:01;101520.14;;;-1.86;100.00
19789;BME280;10054;59.332;18.244;2022-12-18T03:42:50;101522.72;;;-1.87;100.00
19789;BME280;10054;59.332;18.244;2022-12-18T03:45:26;101524.45;;;-1.86;100.00
19789;BME280;10054;59.332;18.244;2022-12-18T03:48:03;101516.26;;;-1.87;100.00
19789;BME280;10054;59.332;18.244;2022-12-18T03:50:53;101528.33;;;-1.88;100.00
19789;BME280;10054;59.332;18.244;2022-12-18T03:56:14;101532.19;;;-1.91;100.00
19789;BME280;10054;59.332;18.244;2022-12-18T03:58:46;101530.03;;;-1.91;100.00
19789;BME280;10054;59.332;18.244;2022-12-18T04:01:20;101515.81;;;-1.91;100.00
19789;BME280;10054;59.332;18.244;2022-12-18T04:03:49;101508.91;;;-1.92;100.00
19789;BME280;10054;59.332;18.244;2022-12-18T04:06:19;101516.67;;;-1.92;100.00
19789;BME280;10054;59.332;18.244;2022-12-18T04:08:49;101510.64;;;-1.91;100.00
19789;BME280;10054;59.332;18.244;2022-12-18T04:11:20;101510.64;;;-1.91;100.00
19789;BME280;10054;59.332;18.244;2022-12-18T04:13:49;101500.72;;;-1.93;100.00
19789;BME280;10054;59.332;18.244;2022-12-18T04:16:19;101513.66;;;-1.90;100.00
19789;BME280;10054;59.332;18.244;2022-12-18T04:18:49;101514.09;;;-1.91;100.00
19789;BME280;10054;59.332;18.244;2022-12-18T04:21:19;101512.80;;;-1.89;100.00
19789;BME280;10054;59.332;18.244;2022-12-18T04:23:49;101514.09;;;-1.89;100.00
19789;BME280;10054;59.332;18.244;2022-12-18T04:26:20;101519.70;;;-1.88;100.00
19789;BME280;10054;59.332;18.244;2022-12-18T04:29:03;101528.33;;;-1.86;100.00
19789;BME280;10054;59.332;18.244;2022-12-18T04:31:32;101519.28;;;-1.86;100.00
19789;BME280;10054;59.332;18.244;2022-12-18T04:34:01;101524.89;;;-1.82;100.00
19789;BME280;10054;59.332;18.244;2022-12-18T04:36:31;101518.88;;;-1.75;100.00
19789;BME280;10054;59.332;18.244;2022-12-18T04:39:00;101510.69;;;-1.75;100.00
19789;BME280;10054;59.332;18.244;2022-12-18T04:41:29;101509.82;;;-1.77;100.00
19789;BME280;10054;59.332;18.244;2022-12-18T04:43:58;101509.81;;;-1.80;100.00
19789;BME280;10054;59.332;18.244;2022-12-18T04:46:26;101513.68;;;-1.83;100.00
19789;BME280;10054;59.332;18.244;2022-12-18T04:48:56;101513.25;;;-1.85;100.00
19789;BME280;10054;59.332;18.244;2022-12-18T04:51:25;101514.10;;;-1.88;100.00
19789;BME280;10054;59.332;18.244;2022-12-18T04:53:54;101509.36;;;-1.88;100.00
19789;BME280;10054;59.332;18.244;2022-12-18T04:56:22;101511.94;;;-1.91;100.00
19789;BME280;10054;59.332;18.244;2022-12-18T04:58:51;101517.11;;;-1.91;100.00
19789;BME280;10054;59.332;18.244;2022-12-18T05:01:20;101508.91;;;-1.92;100.00
19789;BME280;10054;59.332;18.244;2022-12-18T05:03:50;101515.37;;;-1.92;100.00
19789;BME280;10054;59.332;18.244;2022-12-18T05:06:19;101515.81;;;-1.91;100.00
19789;BME280;10054;59.332;18.244;2022-12-18T05:08:48;101505.90;;;-1.92;100.00
19789;BME280;10054;59.332;18.244;2022-12-18T05:11:16;101490.38;;;-1.93;100.00
19789;BME280;10054;59.332;18.244;2022-12-18T05:13:46;101487.80;;;-1.93;100.00
19789;BME280;10054;59.332;18.244;2022-12-18T05:16:15;101486.94;;;-1.94;100.00
19789;BME280;10054;59.332;18.244;2022-12-18T05:18:44;101473.14;;;-1.94;100.00
19789;BME280;10054;59.332;18.244;2022-12-18T05:21:12;101471.84;;;-1.94;100.00
19789;BME280;10054;59.332;18.244;2022-12-18T05:23:41;101467.11;;;-1.95;100.00
19789;BME280;10054;59.332;18.244;2022-12-18T05:26:14;101460.21;;;-1.96;100.00
19789;BME280;10054;59.332;18.244;2022-12-18T05:28:41;101462.36;;;-1.95;100.00
19789;BME280;10054;59.332;18.244;2022-12-18T05:31:11;101454.61;;;-1.95;100.00
19789;BME280;10054;59.332;18.244;2022-12-18T05:33:40;101456.33;;;-1.96;100.00
19789;BME280;10054;59.332;18.244;2022-12-18T05:36:09;101454.61;;;-1.95;100.00
19789;BME280;10054;59.332;18.244;2022-12-18T05:38:39;101458.06;;;-1.93;100.00
19789;BME280;10054;59.332;18.244;2022-12-18T05:41:08;101454.61;;;-1.95;100.00
19789;BME280;10054;59.332;18.244;2022-12-18T05:43:39;101462.37;;;-1.94;100.00
19789;BME280;10054;59.332;18.244;2022-12-18T05:46:11;101462.80;;;-1.94;100.00
19789;BME280;10054;59.332;18.244;2022-12-18T05:48:39;101459.78;;;-1.95;100.00
19789;BME280;10054;59.332;18.244;2022-12-18T05:51:11;101460.64;;;-1.95;100.00
19789;BME280;10054;59.332;18.244;2022-12-18T05:53:40;101464.95;;;-1.92;100.00
19789;BME280;10054;59.332;18.244;2022-12-18T05:56:19;101454.19;;;-1.90;100.00
19789;BME280;10054;59.332;18.244;2022-12-18T05:58:46;101455.05;;;-1.88;100.00
19789;BME280;10054;59.332;18.244;2022-12-18T06:01:18;101455.06;;;-1.85;100.00
19789;BME280;10054;59.332;18.244;2022-12-18T06:03:47;101452.91;;;-1.81;100.00
19789;BME280;10054;59.332;18.244;2022-12-18T06:06:21;101450.77;;;-1.76;100.00
19789;BME280;10054;59.332;18.244;2022-12-18T06:08:50;101443.86;;;-1.77;100.00
19789;BME280;10054;59.332;18.244;2022-12-18T06:11:26;101435.23;;;-1.80;100.00
19789;BME280;10054;59.332;18.244;2022-12-18T06:13:57;101429.20;;;-1.82;100.00
19789;BME280;10054;59.332;18.244;2022-12-18T06:16:22;101429.63;;;-1.84;100.00
19789;BME280;10054;59.332;18.244;2022-12-18T06:18:51;101433.51;;;-1.86;100.00
19789;BME280;10054;59.332;18.244;2022-12-18T06:21:19;101428.77;;;-1.86;100.00
19789;BME280;10054;59.332;18.244;2022-12-18T06:23:48;101434.80;;;-1.86;100.00
19789;BME280;10054;59.332;18.244;2022-12-18T06:26:17;101441.70;;;-1.86;100.00
19789;BME280;10054;59.332;18.244;2022-12-18T06:28:46;101437.82;;;-1.85;100.00
19789;BME280;10054;59.332;18.244;2022-12-18T06:31:15;101426.18;;;-1.85;100.00
19789;BME280;10054;59.332;18.244;2022-12-18T06:33:43;101426.61;;;-1.85;100.00
19789;BME280;10054;59.332;18.244;2022-12-18T06:36:13;101421.45;;;-1.84;100.00
19789;BME280;10054;59.332;18.244;2022-12-18T06:38:44;101431.36;;;-1.82;100.00
19789;BME280;10054;59.332;18.244;2022-12-18T06:41:20;101419.30;;;-1.81;100.00
19789;BME280;10054;59.332;18.244;2022-12-18T06:43:45;101414.55;;;-1.79;100.00
19789;BME280;10054;59.332;18.244;2022-12-18T06:46:14;101410.67;;;-1.79;100.00
19789;BME280;10054;59.332;18.244;2022-12-18T06:48:46;101403.77;;;-1.80;100.00
19789;BME280;10054;59.332;18.244;2022-12-18T06:51:18;101406.36;;;-1.78;100.00
19789;BME280;10054;59.332;18.244;2022-12-18T06:53:47;101420.59;;;-1.78;100.00
19789;BME280;10054;59.332;18.244;2022-12-18T06:56:15;101418.44;;;-1.77;100.00
19789;BME280;10054;59.332;18.244;2022-12-18T06:58:45;101422.75;;;-1.75;100.00
19789;BME280;10054;59.332;18.244;2022-12-18T07:01:14;101417.58;;;-1.73;100.00
19789;BME280;10054;59.332;18.244;2022-12-18T07:03:42;101425.34;;;-1.72;100.00
19789;BME280;10054;59.332;18.244;2022-12-18T07:06:16;101422.31;;;-1.70;100.00
19789;BME280;10054;59.332;18.244;2022-12-18T07:08:46;101417.58;;;-1.66;100.00
19789;BME280;10054;59.332;18.244;2022-12-18T07:11:15;101411.97;;;-1.62;100.00
19789;BME280;10054;59.332;18.244;2022-12-18T07:13:45;101408.95;;;-1.57;100.00
19789;BME280;10054;59.332;18.244;2022-12-18T07:16:19;101420.59;;;-1.49;100.00
19789;BME280;10054;59.332;18.244;2022-12-18T07:18:48;101424.02;;;-1.44;100.00
19789;BME280;10054;59.332;18.244;2022-12-18T07:21:18;101430.48;;;-1.43;100.00
19789;BME280;10054;59.332;18.244;2022-12-18T07:23:47;101435.22;;;-1.42;100.00
19789;BME280;10054;59.332;18.244;2022-12-18T07:26:19;101431.77;;;-1.43;100.00
19789;BME280;10054;59.332;18.244;2022-12-18T07:28:49;101437.37;;;-1.43;100.00
19789;BME280;10054;59.332;18.244;2022-12-18T07:31:20;101428.75;;;-1.41;100.00
19789;BME280;10054;59.332;18.244;2022-12-18T07:33:49;101436.95;;;-1.40;100.00
19789;BME280;10054;59.332;18.244;2022-12-18T07:36:19;101436.52;;;-1.38;100.00
19789;BME280;10054;59.332;18.244;2022-12-18T07:38:51;101420.13;;;-1.35;100.00
19789;BME280;10054;59.332;18.244;2022-12-18T07:41:20;101425.73;;;-1.33;100.00
19789;BME280;10054;59.332;18.244;2022-12-18T07:43:49;101428.75;;;-1.28;100.00
19789;BME280;10054;59.332;18.244;2022-12-18T07:46:18;101420.11;;;-1.24;100.00
19789;BME280;10054;59.332;18.244;2022-12-18T07:48:47;101419.24;;;-1.22;100.00
19789;BME280;10054;59.332;18.244;2022-12-18T07:51:17;101418.81;;;-1.18;100.00
19789;BME280;10054;59.332;18.244;2022-12-18T07:53:46;101411.03;;;-1.15;100.00
19789;BME280;10054;59.332;18.244;2022-12-18T07:56:15;101412.33;;;-1.12;100.00
19789;BME280;10054;59.332;18.244;2022-12-18T07:58:44;101410.59;;;-1.09;100.00
19789;BME280;10054;59.332;18.244;2022-12-18T08:01:15;101410.16;;;-1.07;100.00
19789;BME280;10054;59.332;18.244;2022-12-18T08:03:44;101417.48;;;-1.02;100.00
19789;BME280;10054;59.332;18.244;2022-12-18T08:06:13;101429.13;;;-0.98;100.00
19789;BME280;10054;59.332;18.244;2022-12-18T08:08:42;101433.44;;;-0.96;100.00
19789;BME280;10054;59.332;18.244;2022-12-18T08:11:10;101427.39;;;-0.92;100.00
19789;BME280;10054;59.332;18.244;2022-12-18T08:13:39;101425.23;;;-0.91;100.00
19789;BME280;10054;59.332;18.244;2022-12-18T08:16:08;101423.06;;;-0.88;100.00
19789;BME280;10054;59.332;18.244;2022-12-18T08:18:38;101429.53;;;-0.85;100.00
19789;BME280;10054;59.332;18.244;2022-12-18T08:21:17;101429.95;;;-0.83;100.00
19789;BME280;10054;59.332;18.244;2022-12-18T08:23:42;101426.05;;;-0.78;100.00
19789;BME280;10054;59.332;18.244;2022-12-18T08:26:12;101426.91;;;-0.75;100.00
19789;BME280;10054;59.332;18.244;2022-12-18T08:28:41;101429.02;;;-0.71;100.00
19789;BME280;10054;59.332;18.244;2022-12-18T08:31:11;101429.45;;;-0.70;100.00
19789;BME280;10054;59.332;18.244;2022-12-18T08:33:40;101416.48;;;-0.67;100.00
19789;BME280;10054;59.332;18.244;2022-12-18T08:36:10;101416.05;;;-0.65;100.00
19789;BME280;10054;59.332;18.244;2022-12-18T08:38:39;101412.58;;;-0.62;100.00
19789;BME280;10054;59.332;18.244;2022-12-18T08:41:10;101403.93;;;-0.60;100.00
19789;BME280;10054;59.332;18.244;2022-12-18T08:43:40;101409.96;;;-0.56;100.00
19789;BME280;10054;59.332;18.244;2022-12-18T08:46:30;101404.77;;;-0.53;100.00
19789;BME280;10054;59.332;18.244;2022-12-18T08:48:57;101406.48;;;-0.51;100.00
19789;BME280;10054;59.332;18.244;2022-12-18T08:51:26;101408.62;;;-0.46;100.00
19789;BME280;10054;59.332;18.244;2022-12-18T08:53:55;101407.75;;;-0.43;100.00
19789;BME280;10054;59.332;18.244;2022-12-18T08:56:24;101404.27;;;-0.41;100.00
19789;BME280;10054;59.332;18.244;2022-12-18T08:58:54;101408.58;;;-0.38;100.00
19789;BME280;10054;59.332;18.244;2022-12-18T09:01:23;101399.50;;;-0.35;100.00
19789;BME280;10054;59.332;18.244;2022-12-18T09:03:52;101395.59;;;-0.32;100.00
19789;BME280;10054;59.332;18.244;2022-12-18T09:06:22;101388.66;;;-0.30;100.00
19789;BME280;10054;59.332;18.244;2022-12-18T09:08:51;101392.54;;;-0.27;100.00
19789;BME280;10054;59.332;18.244;2022-12-18T09:11:24;101399.43;;;-0.23;100.00
19789;BME280;10054;59.332;18.244;2022-12-18T09:13:54;101397.25;;;-0.20;100.00
19789;BME280;10054;59.332;18.244;2022-12-18T09:16:24;101399.83;;;-0.17;100.00
19789;BME280;10054;59.332;18.244;2022-12-18T09:18:54;101399.81;;;-0.14;100.00
19789;BME280;10054;59.332;18.244;2022-12-18T09:21:25;101400.22;;;-0.10;100.00
19789;BME280;10054;59.332;18.244;2022-12-18T09:23:55;101403.66;;;-0.07;100.00
19789;BME280;10054;59.332;18.244;2022-12-18T09:26:25;101408.80;;;-0.01;100.00
19789;BME280;10054;59.332;18.244;2022-12-18T09:28:54;101405.73;;;0.02;100.00
19789;BME280;10054;59.332;18.244;2022-12-18T09:31:24;101398.78;;;0.05;100.00
19789;BME280;10054;59.332;18.244;2022-12-18T09:33:54;101400.50;;;0.08;100.00
19789;BME280;10054;59.332;18.244;2022-12-18T09:36:23;101386.23;;;0.08;100.00
19789;BME280;10054;59.332;18.244;2022-12-18T09:38:51;101371.93;;;0.12;100.00
19789;BME280;10054;59.332;18.244;2022-12-18T09:41:46;101362.81;;;0.17;100.00
19789;BME280;10054;59.332;18.244;2022-12-18T09:44:23;101359.75;;;0.22;100.00
19789;BME280;10054;59.332;18.244;2022-12-18T09:49:47;101357.95;;;0.30;100.00
19789;BME280;10054;59.332;18.244;2022-12-18T09:52:24;101359.64;;;0.34;100.00
19789;BME280;10054;59.332;18.244;2022-12-18T09:54:55;101355.72;;;0.37;100.00
19789;BME280;10054;59.332;18.244;2022-12-18T09:57:24;101351.38;;;0.39;100.00
19789;BME280;10054;59.332;18.244;2022-12-18T10:00:16;101344.00;;;0.42;100.00
19789;BME280;10054;59.332;18.244;2022-12-18T10:02:46;101332.30;;;0.45;100.00
19789;BME280;10054;59.332;18.244;2022-12-18T10:05:17;101329.23;;;0.48;100.00
19789;BME280;10054;59.332;18.244;2022-12-18T10:08:02;101326.19;;;0.50;100.00
19789;BME280;10054;59.332;18.244;2022-12-18T10:10:45;101324.45;;;0.51;100.00
19789;BME280;10054;59.332;18.244;2022-12-18T10:19:12;101331.25;;;0.62;100.00
19789;BME280;10054;59.332;18.244;2022-12-18T10:22:03;101330.80;;;0.64;100.00
19789;BME280;10054;59.332;18.244;2022-12-18T10:24:38;101337.29;;;0.64;100.00
19789;BME280;10054;59.332;18.244;2022-12-18T10:27:16;101329.92;;;0.65;100.00
19789;BME280;10054;59.332;18.244;2022-12-18T10:29:46;101320.38;;;0.68;100.00
19789;BME280;10054;59.332;18.244;2022-12-18T10:32:17;101317.77;;;0.69;100.00
19789;BME280;10054;59.332;18.244;2022-12-18T10:34:47;101314.28;;;0.72;100.00
19789;BME280;10054;59.332;18.244;2022-12-18T10:37:19;101323.77;;;0.74;100.00
19789;BME280;10054;59.332;18.244;2022-12-18T10:40:10;101325.90;;;0.75;100.00
19789;BME280;10054;59.332;18.244;2022-12-18T10:42:39;101322.84;;;0.77;100.00
19789;BME280;10054;59.332;18.244;2022-12-18T10:45:14;101334.97;;;0.76;100.00
19789;BME280;10054;59.332;18.244;2022-12-18T10:47:45;101342.77;;;0.76;100.00
19789;BME280;10054;59.332;18.244;2022-12-18T10:50:23;101327.60;;;0.77;100.00
19789;BME280;10054;59.332;18.244;2022-12-18T10:53:01;101334.11;;;0.76;100.00
19789;BME280;10054;59.332;18.244;2022-12-18T10:55:40;101342.77;;;0.76;100.00
19789;BME280;10054;59.332;18.244;2022-12-18T10:58:26;101340.61;;;0.76;100.00
19789;BME280;10054;59.332;18.244;2022-12-18T11:01:13;101331.08;;;0.76;100.00
19789;BME280;10054;59.332;18.244;2022-12-18T11:06:16;101332.80;;;0.77;100.00
19789;BME280;10054;59.332;18.244;2022-12-18T11:09:00;101327.16;;;0.78;100.00
19789;BME280;10054;59.332;18.244;2022-12-18T11:11:29;101317.20;;;0.79;100.00
19789;BME280;10054;59.332;18.244;2022-12-18T11:14:05;101322.81;;;0.80;100.00
19789;BME280;10054;59.332;18.244;2022-12-18T11:16:46;101322.80;;;0.81;100.00
19789;BME280;10054;59.332;18.244;2022-12-18T11:21:54;101322.36;;;0.82;100.00
19789;BME280;10054;59.332;18.244;2022-12-18T11:24:27;101315.84;;;0.83;100.00
19789;BME280;10054;59.332;18.244;2022-12-18T11:26:56;101304.16;;;0.83;100.00
19789;BME280;10054;59.332;18.244;2022-12-18T11:29:38;101323.62;;;0.85;100.00
19789;BME280;10054;59.332;18.244;2022-12-18T11:32:23;101310.59;;;0.88;100.00
19789;BME280;10054;59.332;18.244;2022-12-18T11:34:57;101291.10;;;0.89;100.00
19789;BME280;10054;59.332;18.244;2022-12-18T11:37:22;101300.61;;;0.90;100.00
19789;BME280;10054;59.332;18.244;2022-12-18T11:40:07;101295.44;;;0.89;100.00
19789;BME280;10054;59.332;18.244;2022-12-18T11:42:41;101288.06;;;0.90;100.00
19789;BME280;10054;59.332;18.244;2022-12-18T11:50:41;101294.14;;;0.89;100.00
19789;BME280;10054;59.332;18.244;2022-12-18T11:53:02;101298.91;;;0.88;100.00
19789;BME280;10054;59.332;18.244;2022-12-18T11:55:41;101301.53;;;0.86;100.00
19789;BME280;10054;59.332;18.244;2022-12-18T12:01:10;101295.02;;;0.88;100.00
19789;BME280;10054;59.332;18.244;2022-12-18T12:06:29;101299.31;;;0.90;100.00
19789;BME280;10054;59.332;18.244;2022-12-18T12:14:34;101296.66;;;0.95;100.00
19789;BME280;10054;59.332;18.244;2022-12-18T12:17:38;101307.47;;;0.96;100.00
19789;BME280;10054;59.332;18.244;2022-12-18T12:20:21;101308.80;;;0.94;100.00
19789;BME280;10054;59.332;18.244;2022-12-18T12:23:04;101313.51;;;0.98;100.00
19789;BME280;10054;59.332;18.244;2022-12-18T12:25:27;101310.47;;;0.98;100.00
19789;BME280;10054;59.332;18.244;2022-12-18T12:28:09;101306.14;;;0.99;100.00
19789;BME280;10054;59.332;18.244;2022-12-18T12:30:50;101316.95;;;1.00;100.00
19789;BME280;10054;59.332;18.244;2022-12-18T12:38:35;101332.94;;;1.03;100.00
19789;BME280;10054;59.332;18.244;2022-12-18T12:41:06;101325.56;;;1.04;100.00
19789;BME280;10054;59.332;18.244;2022-12-18T12:43:45;101327.30;;;1.03;100.00
19789;BME280;10054;59.332;18.244;2022-12-18T12:46:18;101327.30;;;1.03;100.00
19789;BME280;10054;59.332;18.244;2022-12-18T12:48:50;101319.07;;;1.04;100.00
19789;BME280;10054;59.332;18.244;2022-12-18T12:51:37;101319.47;;;1.06;100.00
19789;BME280;10054;59.332;18.244;2022-12-18T12:54:15;101322.07;;;1.06;100.00
19789;BME280;10054;59.332;18.244;2022-12-18T12:56:50;101322.91;;;1.08;100.00
19789;BME280;10054;59.332;18.244;2022-12-18T12:59:36;101322.47;;;1.09;100.00
19789;BME280;10054;59.332;18.244;2022-12-18T13:02:22;101320.73;;;1.09;100.00
19789;BME280;10054;59.332;18.244;2022-12-18T13:05:00;101329.81;;;1.11;100.00
19789;BME280;10054;59.332;18.244;2022-12-18T13:07:37;101336.73;;;1.12;100.00
19789;BME280;10054;59.332;18.244;2022-12-18T13:10:24;101323.72;;;1.13;100.00
19789;BME280;10054;59.332;18.244;2022-12-18T13:12:58;101318.50;;;1.15;100.00
19789;BME280;10054;59.332;18.244;2022-12-18T13:18:19;101314.91;;;1.25;100.00
19789;BME280;10054;59.332;18.244;2022-12-18T13:23:34;101321.84;;;1.24;100.00
19789;BME280;10054;59.332;18.244;2022-12-18T13:28:50;101314.88;;;1.26;100.00
19789;BME280;10054;59.332;18.244;2022-12-18T13:34:20;101289.31;;;1.27;100.00
19789;BME280;10054;59.332;18.244;2022-12-18T13:36:50;101283.70;;;1.26;100.00
19789;BME280;10054;59.332;18.244;2022-12-18T13:39:24;101292.75;;;1.29;100.00
19789;BME280;10054;59.332;18.244;2022-12-18T13:44:40;101301.39;;;1.31;100.00
19789;BME280;10054;59.332;18.244;2022-12-18T13:47:31;101290.53;;;1.34;100.00
19789;BME280;10054;59.332;18.244;2022-12-18T13:49:57;101290.51;;;1.35;100.00
19789;BME280;10054;59.332;18.244;2022-12-18T13:52:28;101276.66;;;1.35;100.00
19789;BME280;10054;59.332;18.244;2022-12-18T13:54:59;101284.89;;;1.34;100.00
19789;BME280;10054;59.332;18.244;2022-12-18T13:57:35;101297.45;;;1.35;100.00
19789;BME280;10054;59.332;18.244;2022-12-18T14:02:52;101297.06;;;1.30;100.00
19789;BME280;10054;59.332;18.244;2022-12-18T14:05:30;101303.59;;;1.29;100.00